Time;durP1;ratioP1;P1;durP2;ratioP2;P2;SDS_P1;SDS_P2;PMS_P1;PMS_P2;Temp;Humidity;BMP_temperature;BMP_pressure;BME280_temperature;BME280_humidity;BME280_pressure;Samples;Min_cycle;Max_cycle;Signal;HPM_P1;HPM_P2
2022/11/18 00:01:24;;;;;;;12.03;11.13;;;;;;;9.02;100.00;91821.84;5110733;28;20923;-67
2022/11/18 00:03:50;;;;;;;12.57;11.60;;;;;;;9.03;100.00;91839.78;5111952;28;20214;-68
2022/11/18 00:06:19;;;;;;;11.30;10.40;;;;;;;8.91;100.00;91847.28;5109344;28;20219;-68
2022/11/18 00:08:45;;;;;;;12.37;11.57;;;;;;;8.98;100.00;91846.91;5110499;28;20196;-68
2022/11/18 00:14:17;;;;;;;12.37;11.40;;;;;;;8.88;100.00;91839.25;5110044;28;20212;-68
2022/11/18 00:16:42;;;;;;;12.53;11.63;;;;;;;8.82;100.00;91824.78;5111041;28;20215;-68
2022/11/18 00:19:08;;;;;;;12.67;11.77;;;;;;;8.99;100.00;91845.84;5109734;28;20188;-72
2022/11/18 00:21:33;;;;;;;12.87;11.77;;;;;;;9.03;100.00;91836.38;5111526;28;20198;-68
2022/11/18 00:23:58;;;;;;;12.53;11.63;;;;;;;9.02;100.00;91829.66;5110919;28;20192;-68
2022/11/18 00:26:24;;;;;;;12.87;11.80;;;;;;;9.03;100.00;91831.19;5110750;28;20215;-68
2022/11/18 00:28:49;;;;;;;13.43;12.43;;;;;;;8.95;100.00;91821.47;5111128;28;20212;-68
2022/11/18 00:31:14;;;;;;;12.63;11.63;;;;;;;8.94;100.00;91825.09;5111101;28;20284;-67
2022/11/18 00:33:40;;;;;;;12.57;11.67;;;;;;;8.99;100.00;91832.81;5110672;28;20200;-68
2022/11/18 00:36:09;;;;;;;11.83;10.70;;;;;;;8.98;100.00;91826.84;5111456;28;20231;-68
2022/11/18 00:38:35;;;;;;;14.23;13.27;;;;;;;8.93;100.00;91826.94;5111447;28;20200;-67
2022/11/18 00:41:08;;;;;;;13.63;12.43;;;;;;;8.98;100.00;91823.47;5110199;28;20228;-69
2022/11/18 00:43:34;;;;;;;11.53;10.73;;;;;;;8.89;100.00;91827.78;5110311;28;20236;-69
2022/11/18 00:46:00;;;;;;;12.40;11.50;;;;;;;8.69;100.00;91812.53;5110789;28;20231;-68
2022/11/18 00:48:26;;;;;;;13.83;12.77;;;;;;;8.73;100.00;91829.13;5110674;28;20168;-68
2022/11/18 00:50:54;;;;;;;12.73;11.53;;;;;;;8.75;100.00;91821.78;5110532;28;20239;-68
2022/11/18 00:53:21;;;;;;;12.67;11.87;;;;;;;8.81;100.00;91831.06;5111313;28;20185;-68
2022/11/18 00:55:46;;;;;;;12.73;11.77;;;;;;;8.75;100.00;91826.97;5107678;28;20236;-69
2022/11/18 00:58:13;;;;;;;11.53;10.77;;;;;;;8.69;100.00;91817.72;5111069;28;20278;-68
2022/11/18 01:00:49;;;;;;;11.77;10.97;;;;;;;8.76;100.00;91833.75;5109870;28;20288;-69
2022/11/18 01:03:15;;;;;;;11.63;10.77;;;;;;;8.71;100.00;91831.22;5110743;28;20196;-68
2022/11/18 01:05:41;;;;;;;11.60;10.80;;;;;;;8.64;100.00;91825.63;5109778;28;20303;-69
2022/11/18 01:08:08;;;;;;;11.57;10.87;;;;;;;8.63;100.00;91831.88;5111170;28;20191;-67
2022/11/18 01:10:35;;;;;;;13.07;12.10;;;;;;;8.69;100.00;91822.94;5109729;28;20247;-68
2022/11/18 01:13:19;;;;;;;11.47;10.67;;;;;;;8.74;100.00;91809.84;5110104;28;20180;-69
2022/11/18 01:15:53;;;;;;;12.07;11.27;;;;;;;8.72;100.00;91832.75;5109909;28;20265;-67
2022/11/18 01:18:22;;;;;;;11.93;11.13;;;;;;;8.83;100.00;91828.94;5110174;28;20248;-67
2022/11/18 01:20:48;;;;;;;10.80;10.00;;;;;;;8.80;100.00;91817.28;5105865;28;20232;-68
2022/11/18 01:23:14;;;;;;;12.13;11.07;;;;;;;8.86;100.00;91817.94;5109616;28;20200;-68
2022/11/18 01:25:42;;;;;;;11.93;11.10;;;;;;;8.71;100.00;91815.63;5108551;28;20253;-68
2022/11/18 01:28:08;;;;;;;12.60;11.60;;;;;;;8.94;100.00;91830.31;5110627;28;20189;-68
2022/11/18 01:30:36;;;;;;;11.73;10.90;;;;;;;8.91;100.00;91831.66;5106865;28;20219;-68
2022/11/18 01:33:02;;;;;;;12.23;11.07;;;;;;;8.92;100.00;91827.25;5110044;28;20192;-68
2022/11/18 01:35:32;;;;;;;12.57;11.73;;;;;;;8.62;100.00;91807.72;5108885;28;21072;-68
2022/11/18 01:37:58;;;;;;;11.27;10.50;;;;;;;8.64;100.00;91838.66;5109561;28;20196;-67
2022/11/18 01:40:25;;;;;;;13.17;12.07;;;;;;;8.64;100.00;91836.78;5108904;28;20224;-68
2022/11/18 01:42:50;;;;;;;11.90;11.10;;;;;;;8.71;100.00;91834.63;5110158;28;20195;-67
2022/11/18 01:45:35;;;;;;;11.87;11.07;;;;;;;8.65;100.00;91821.97;5109479;28;20224;-69
2022/11/18 01:48:19;;;;;;;12.17;11.27;;;;;;;8.59;100.00;91829.06;5108567;28;20192;-68
2022/11/18 01:50:50;;;;;;;12.53;11.63;;;;;;;8.49;100.00;91812.84;5108416;28;20234;-68
2022/11/18 01:53:22;;;;;;;11.67;10.97;;;;;;;8.53;100.00;91825.00;5109580;28;20252;-68
2022/11/18 01:55:50;;;;;;;12.20;11.40;;;;;;;8.52;100.00;91833.09;5108717;28;20232;-68
2022/11/18 01:58:31;;;;;;;13.10;12.10;;;;;;;8.28;100.00;91824.63;5109561;28;20195;-68
2022/11/18 02:00:57;;;;;;;12.07;11.13;;;;;;;8.16;100.00;91812.81;5106656;28;20219;-68
2022/11/18 02:03:24;;;;;;;12.00;11.30;;;;;;;8.31;100.00;91826.66;5109845;28;20188;-68
2022/11/18 02:05:52;;;;;;;12.40;11.60;;;;;;;8.35;100.00;91827.63;5106752;28;20297;-68
2022/11/18 02:08:19;;;;;;;12.53;11.43;;;;;;;8.20;100.00;91805.22;5107888;28;20191;-68
2022/11/18 02:10:44;;;;;;;13.57;12.47;;;;;;;8.36;100.00;91824.00;5106981;28;20286;-68
2022/11/18 02:13:11;;;;;;;12.60;11.60;;;;;;;8.37;100.00;91823.72;5109135;28;20249;-67
2022/11/18 02:15:46;;;;;;;12.30;11.43;;;;;;;8.40;100.00;91822.38;5109625;28;20216;-68
2022/11/18 02:18:35;;;;;;;11.97;11.17;;;;;;;8.44;100.00;91821.50;5108811;28;20178;-67
2022/11/18 02:21:18;;;;;;;12.07;11.17;;;;;;;8.30;100.00;91830.31;5106851;28;20224;-68
2022/11/18 02:24:25;;;;;;;11.57;10.87;;;;;;;8.19;100.00;91820.06;5107702;28;20182;-68
2022/11/18 02:27:00;;;;;;;11.20;10.60;;;;;;;8.17;100.00;91816.94;5108507;28;20218;-68
2022/11/18 02:29:31;;;;;;;12.47;11.67;;;;;;;8.23;100.00;91811.72;5108490;28;20180;-67
2022/11/18 02:32:08;;;;;;;11.97;11.07;;;;;;;8.14;100.00;91822.72;5108080;28;20713;-68
2022/11/18 02:34:46;;;;;;;11.30;10.60;;;;;;;8.23;100.00;91819.50;5107848;28;20247;-68
2022/11/18 02:37:21;;;;;;;12.17;11.37;;;;;;;8.17;100.00;91811.75;5107575;28;20187;-67
2022/11/18 02:39:53;;;;;;;10.67;10.07;;;;;;;8.11;100.00;91801.69;5109014;28;20235;-68
2022/11/18 02:42:20;;;;;;;11.40;10.60;;;;;;;8.12;100.00;91809.22;5108371;28;20206;-69
2022/11/18 02:44:51;;;;;;;10.97;10.27;;;;;;;8.11;100.00;91814.69;5107580;28;20243;-68
2022/11/18 02:47:17;;;;;;;11.37;10.67;;;;;;;8.01;100.00;91813.06;5107191;28;20253;-68
2022/11/18 02:49:47;;;;;;;11.43;10.53;;;;;;;8.00;100.00;91816.69;5108202;28;20242;-68
2022/11/18 02:52:15;;;;;;;11.80;10.60;;;;;;;8.05;100.00;91808.81;5108807;28;20192;-68
2022/11/18 02:54:44;;;;;;;12.13;11.37;;;;;;;8.03;100.00;91817.97;5105673;28;20227;-68
2022/11/18 02:57:11;;;;;;;12.20;11.50;;;;;;;8.00;100.00;91801.09;5109061;28;20205;-69
2022/11/18 02:59:36;;;;;;;11.40;10.60;;;;;;;8.22;100.00;91823.16;5108068;28;20235;-68
2022/11/18 03:02:02;;;;;;;12.33;11.43;;;;;;;8.18;100.00;91821.13;5107749;28;20184;-68
2022/11/18 03:04:29;;;;;;;12.40;11.57;;;;;;;8.14;100.00;91811.53;5107712;28;20227;-68
2022/11/18 03:07:19;;;;;;;12.80;11.80;;;;;;;8.23;100.00;91819.50;5109167;28;20192;-68
2022/11/18 03:09:49;;;;;;;13.10;12.10;;;;;;;8.16;100.00;91822.44;5105934;28;20255;-68
2022/11/18 03:12:38;;;;;;;12.17;11.17;;;;;;;8.11;100.00;91805.09;5109500;28;20196;-67
2022/11/18 03:15:29;;;;;;;12.60;11.70;;;;;;;8.08;100.00;91810.06;5106733;28;20219;-68
2022/11/18 03:18:06;;;;;;;12.00;11.27;;;;;;;8.14;100.00;91816.72;5108656;28;20196;-68
2022/11/18 03:20:40;;;;;;;12.43;11.43;;;;;;;7.98;100.00;91812.84;5109113;28;20254;-68
2022/11/18 03:23:13;;;;;;;11.27;10.57;;;;;;;8.01;100.00;91813.06;5112208;28;20187;-68
2022/11/18 03:25:50;;;;;;;12.80;11.70;;;;;;;8.14;100.00;91811.53;5110931;28;20216;-68
2022/11/18 03:28:29;;;;;;;12.73;11.70;;;;;;;8.12;100.00;91809.22;5112730;28;20206;-68
2022/11/18 03:31:22;;;;;;;12.73;11.83;;;;;;;8.12;100.00;91816.25;5108883;28;20232;-68
2022/11/18 03:33:55;;;;;;;14.80;13.53;;;;;;;8.55;100.00;91815.09;5110354;28;20202;-68
2022/11/18 03:36:23;;;;;;;16.23;14.87;;;;;;;8.49;100.00;91812.84;5092644;28;20262;-65
2022/11/18 03:38:57;;;;;;;15.27;13.83;;;;;;;8.63;100.00;91804.03;5092739;28;20718;-66
2022/11/18 03:41:26;;;;;;;15.63;14.33;;;;;;;8.54;100.00;91805.75;5099293;28;20251;-66
2022/11/18 03:44:08;;;;;;;17.23;15.80;;;;;;;8.39;100.00;91802.63;5101559;28;20189;-65
2022/11/18 03:46:59;;;;;;;14.53;13.33;;;;;;;8.38;100.00;91811.47;5090665;28;20228;-67
2022/11/18 03:49:43;;;;;;;15.73;13.93;;;;;;;8.24;100.00;91795.84;5090109;28;20193;-66
2022/11/18 03:52:21;;;;;;;14.53;13.33;;;;;;;8.30;100.00;91797.28;5089946;28;20192;-66
2022/11/18 03:54:49;;;;;;;15.07;13.87;;;;;;;8.31;100.00;91805.88;5095203;28;20235;-65
2022/11/18 03:57:23;;;;;;;15.90;14.50;;;;;;;8.16;100.00;91801.63;5110704;28;20184;-66
2022/11/18 03:59:58;;;;;;;17.47;14.93;;;;;;;8.12;100.00;91790.28;5108667;28;20299;-66
2022/11/18 04:02:26;;;;;;;16.33;14.73;;;;;;;8.10;100.00;91795.75;5112085;28;20184;-66
2022/11/18 04:04:56;;;;;;;15.93;14.33;;;;;;;8.18;100.00;91792.53;5109708;28;20246;-66
2022/11/18 04:07:42;;;;;;;15.70;13.63;;;;;;;8.37;100.00;91792.50;5111601;28;20198;-65
2022/11/18 04:10:34;;;;;;;16.73;14.97;;;;;;;8.48;100.00;91774.91;5108696;28;20255;-65
2022/11/18 04:13:23;;;;;;;18.23;16.53;;;;;;;8.24;100.00;91789.84;5090692;28;20224;-65
2022/11/18 04:15:49;;;;;;;17.80;16.00;;;;;;;8.31;100.00;91785.84;5108888;28;20250;-66
2022/11/18 04:18:14;;;;;;;15.97;14.67;;;;;;;8.33;100.00;91793.38;5110786;28;20188;-66
2022/11/18 04:20:39;;;;;;;16.47;15.03;;;;;;;8.34;100.00;91792.31;5109108;28;20279;-66
2022/11/18 04:23:06;;;;;;;17.50;15.73;;;;;;;8.18;100.00;91800.31;5110160;28;20191;-66
2022/11/18 04:25:31;;;;;;;17.07;15.60;;;;;;;8.09;100.00;91793.44;5110351;28;20226;-66
2022/11/18 04:27:57;;;;;;;17.00;15.50;;;;;;;8.11;100.00;91793.91;5110964;28;20184;-65
2022/11/18 04:30:22;;;;;;;17.83;16.43;;;;;;;7.93;100.00;91792.88;5109254;28;20236;-65
2022/11/18 04:32:48;;;;;;;15.47;14.17;;;;;;;7.97;100.00;91806.84;5109578;28;20200;-67
2022/11/18 04:35:14;;;;;;;16.60;15.20;;;;;;;7.86;100.00;91810.66;5099619;28;20251;-65
2022/11/18 04:37:39;;;;;;;15.13;13.93;;;;;;;7.89;100.00;91811.94;5091528;28;20226;-65
2022/11/18 04:40:06;;;;;;;16.13;14.50;;;;;;;7.99;100.00;91799.56;5097865;28;20232;-67
2022/11/18 04:42:32;;;;;;;15.70;14.40;;;;;;;8.10;100.00;91806.16;5108135;28;20192;-68
2022/11/18 04:44:57;;;;;;;16.70;15.33;;;;;;;8.01;100.00;91802.66;5110043;28;20842;-68
2022/11/18 04:47:23;;;;;;;17.27;14.90;;;;;;;7.74;100.00;91815.50;5109668;28;20216;-70
2022/11/18 04:49:48;;;;;;;16.80;13.60;;;;;;;7.78;100.00;91787.88;5109663;28;20250;-68
2022/11/18 04:52:14;;;;;;;18.00;14.53;;;;;;;7.96;100.00;91812.34;5106853;28;20188;-67
2022/11/18 04:54:39;;;;;;;14.93;13.63;;;;;;;8.02;100.00;91819.00;5105783;28;20677;-67
2022/11/18 04:57:05;;;;;;;15.43;14.10;;;;;;;7.74;100.00;91792.13;5110592;28;20207;-67
2022/11/18 04:59:31;;;;;;;17.00;15.17;;;;;;;8.03;100.00;91836.16;5110273;28;20228;-67
2022/11/18 05:01:56;;;;;;;15.97;14.77;;;;;;;8.12;100.00;91819.63;5108196;28;20196;-70
2022/11/18 05:04:25;;;;;;;19.27;16.23;;;;;;;8.52;100.00;91812.28;5109693;28;20196;-69
2022/11/18 05:06:50;;;;;;;17.57;15.97;;;;;;;8.54;100.00;91817.97;5108542;28;20191;-68
2022/11/18 05:09:17;;;;;;;18.57;17.10;;;;;;;8.39;100.00;91810.44;5109455;28;20180;-70
2022/11/18 05:14:28;;;;;;;14.13;12.93;;;;;;;8.31;100.00;91805.88;5109232;28;20270;-68
2022/11/18 05:16:55;;;;;;;16.83;15.30;;;;;;;8.14;100.00;91801.13;5108879;28;20187;-70
2022/11/18 05:19:20;;;;;;;15.20;13.93;;;;;;;8.26;100.00;91824.16;5107647;28;20184;-70
2022/11/18 05:21:46;;;;;;;14.30;13.10;;;;;;;8.03;100.00;91797.91;5108766;28;20187;-70
2022/11/18 05:24:11;;;;;;;16.73;15.20;;;;;;;8.17;100.00;91819.56;5109766;28;20188;-71
2022/11/18 05:26:37;;;;;;;16.63;15.07;;;;;;;7.85;100.00;91814.31;5108853;28;20188;-70
2022/11/18 05:29:02;;;;;;;16.97;15.30;;;;;;;7.82;100.00;91807.06;5108575;28;20184;-71
2022/11/18 05:31:27;;;;;;;19.37;16.07;;;;;;;8.01;100.00;91822.66;5109757;28;20257;-71
2022/11/18 05:33:53;;;;;;;20.90;16.00;;;;;;;7.92;100.00;91825.09;5108110;28;20206;-71
2022/11/18 05:36:19;;;;;;;23.03;17.03;;;;;;;7.79;100.00;91799.84;5108996;28;20228;-71
2022/11/18 05:38:45;;;;;;;23.40;16.90;;;;;;;7.77;100.00;91809.72;5109927;28;20206;-71
2022/11/18 05:43:09;;;;;;;18.00;16.30;;;;;;;7.96;100.00;91804.53;5107432;28;20223;-71
2022/11/18 05:44:00;;;;;;;16.90;15.23;;;;;;;8.26;100.00;91813.75;5104083;28;20192;-71
2022/11/18 05:46:26;;;;;;;20.07;14.40;;;;;;;8.34;100.00;91824.28;5107267;28;20367;-70
2022/11/18 05:48:52;;;;;;;19.17;17.20;;;;;;;8.35;100.00;91836.22;5108188;28;20176;-70
2022/11/18 05:51:17;;;;;;;20.10;18.27;;;;;;;8.53;100.00;91819.06;5107964;28;20223;-71
2022/11/18 05:53:43;;;;;;;19.57;17.60;;;;;;;8.38;100.00;91811.47;5109317;28;20570;-73
2022/11/18 05:56:21;;;;;;;18.30;16.53;;;;;;;8.35;100.00;91812.03;5108265;28;20231;-72
2022/11/18 05:58:47;;;;;;;16.83;15.43;;;;;;;8.38;100.00;91816.66;5106360;28;20188;-72
2022/11/18 06:01:20;;;;;;;18.20;16.07;;;;;;;8.31;100.00;91819.66;5107036;28;20230;-71
2022/11/18 06:03:46;;;;;;;24.53;17.30;;;;;;;8.27;100.00;91778.88;5107684;28;20191;-71
2022/11/18 06:06:14;;;;;;;18.80;17.00;;;;;;;8.44;100.00;91823.34;5105967;28;20232;-72
2022/11/18 06:08:47;;;;;;;20.90;17.00;;;;;;;8.58;100.00;91811.91;5109036;28;20195;-72
2022/11/18 06:11:15;;;;;;;20.30;17.67;;;;;;;8.84;100.00;91809.69;5108047;28;20224;-73
2022/11/18 06:13:49;;;;;;;83.27;78.33;;;;;;;8.61;100.00;91797.56;5107858;28;20243;-72
2022/11/18 06:16:18;;;;;;;22.07;18.47;;;;;;;8.92;100.00;91796.75;5108137;28;20231;-73
2022/11/18 06:18:43;;;;;;;23.57;19.00;;;;;;;8.92;100.00;91793.41;5108901;28;20378;-74
2022/11/18 06:21:09;;;;;;;23.97;19.87;;;;;;;8.92;100.00;91814.97;5107373;28;20247;-74
2022/11/18 06:23:36;;;;;;;20.77;18.53;;;;;;;9.27;100.00;91790.13;5108373;28;20168;-75
2022/11/18 06:26:01;;;;;;;23.70;19.70;;;;;;;8.89;100.00;91786.13;5107466;28;20219;-75
2022/11/18 06:28:28;;;;;;;22.33;20.43;;;;;;;8.97;100.00;91798.50;5106671;28;20244;-75
2022/11/18 06:30:53;;;;;;;19.40;17.43;;;;;;;8.82;100.00;91759.75;5106771;28;20228;-75
2022/11/18 06:33:19;;;;;;;21.03;18.83;;;;;;;9.42;100.00;91774.19;5107222;28;20195;-75
2022/11/18 06:35:44;;;;;;;21.73;19.37;;;;;;;9.47;100.00;91792.34;5095215;28;20235;-75
2022/11/18 06:38:10;;;;;;;21.67;19.37;;;;;;;9.18;100.00;91804.88;5088547;28;20198;-75
2022/11/18 06:40:36;;;;;;;23.63;20.97;;;;;;;9.22;100.00;91779.81;5100288;28;20255;-75
2022/11/18 06:48:34;;;;;;;23.90;20.60;;;;;;;9.89;100.00;91788.59;5107978;28;20213;-75
2022/11/18 06:50:59;;;;;;;20.73;18.73;;;;;;;9.98;100.00;91795.41;5107813;28;20212;-74
2022/11/18 06:53:24;;;;;;;21.03;18.83;;;;;;;10.20;100.00;91805.91;5107074;28;20187;-74
2022/11/18 06:55:50;;;;;;;16.57;14.90;;;;;;;10.62;100.00;91802.84;5106866;28;20225;-75
2022/11/18 06:58:15;;;;;;;19.90;17.80;;;;;;;10.43;100.00;91823.13;5106579;28;20187;-75
2022/11/18 07:00:40;;;;;;;17.77;16.00;;;;;;;10.05;100.00;91779.38;5105125;28;20229;-75
2022/11/18 07:03:06;;;;;;;18.60;16.70;;;;;;;10.39;100.00;91814.34;5106222;28;20195;-75
2022/11/18 07:05:31;;;;;;;19.97;17.97;;;;;;;10.32;100.00;91837.44;5108077;28;20234;-75
2022/11/18 07:07:56;;;;;;;18.30;16.50;;;;;;;10.03;100.00;91826.59;5107266;28;20244;-75
2022/11/18 07:10:22;;;;;;;20.03;18.00;;;;;;;10.51;100.00;91826.84;5106589;28;20227;-76
2022/11/18 07:12:47;;;;;;;21.37;18.60;;;;;;;10.59;100.00;91808.66;5107118;28;20249;-75
2022/11/18 07:15:12;;;;;;;19.83;17.73;;;;;;;10.84;100.00;91826.31;5105382;28;20798;-75
2022/11/18 07:17:38;;;;;;;19.53;17.53;;;;;;;10.65;100.00;91817.91;5107551;28;20204;-75
2022/11/18 07:20:03;;;;;;;18.90;17.13;;;;;;;10.71;100.00;91816.69;5106318;28;20279;-75
2022/11/18 07:22:29;;;;;;;18.93;16.53;;;;;;;10.94;100.00;91799.94;5107744;28;20177;-75
2022/11/18 07:24:54;;;;;;;19.70;17.87;;;;;;;11.12;100.00;91790.34;5106309;28;20239;-75
2022/11/18 07:27:20;;;;;;;20.10;17.57;;;;;;;11.03;100.00;91773.88;5107501;28;20193;-76
2022/11/18 07:29:45;;;;;;;19.40;17.50;;;;;;;10.85;100.00;91788.69;5106552;28;20232;-76
2022/11/18 07:32:10;;;;;;;19.70;17.30;;;;;;;10.77;100.00;91783.44;5106972;28;20217;-75
2022/11/18 07:34:36;;;;;;;20.50;18.37;;;;;;;10.56;100.00;91767.50;5107320;28;20217;-75
2022/11/18 07:37:01;;;;;;;21.40;19.27;;;;;;;10.46;100.00;91767.72;5107822;28;20196;-75
2022/11/18 07:39:26;;;;;;;26.37;20.67;;;;;;;10.12;100.00;91749.22;5106828;28;20189;-75
2022/11/18 07:41:52;;;;;;;22.03;19.23;;;;;;;10.49;100.00;91774.19;5108198;28;20195;-74
2022/11/18 07:44:17;;;;;;;20.23;18.30;;;;;;;10.69;100.00;91765.88;5106140;28;20726;-75
2022/11/18 07:46:42;;;;;;;26.97;20.47;;;;;;;10.56;100.00;91762.28;5108473;28;20184;-76
2022/11/18 07:49:09;;;;;;;24.43;20.63;;;;;;;10.68;100.00;91779.97;5108419;28;20188;-75
2022/11/18 07:51:37;;;;;;;28.60;20.03;;;;;;;11.04;100.00;91765.75;5107872;28;20197;-75
2022/11/18 07:54:15;;;;;;;26.47;19.20;;;;;;;10.80;100.00;91752.25;5109701;28;20258;-75
2022/11/18 07:56:40;;;;;;;22.97;19.63;;;;;;;10.63;100.00;91795.78;5108051;28;20220;-75
2022/11/18 07:59:06;;;;;;;27.27;20.87;;;;;;;10.15;100.00;91819.06;5104620;28;20188;-76
2022/11/18 08:01:31;;;;;;;24.53;20.57;;;;;;;10.00;100.00;91811.53;5107241;28;20220;-75
2022/11/18 08:04:03;;;;;;;32.30;21.90;;;;;;;9.98;100.00;91808.44;5108668;28;20188;-75
2022/11/18 08:06:31;;;;;;;31.43;23.13;;;;;;;9.89;100.00;91815.44;5106953;28;20247;-75
2022/11/18 08:08:56;;;;;;;38.77;23.97;;;;;;;10.09;100.00;91830.66;5112139;28;20224;-75
2022/11/18 08:11:22;;;;;;;36.50;23.97;;;;;;;10.37;100.00;91853.00;5111641;28;20223;-75
2022/11/18 08:13:47;;;;;;;36.00;23.27;;;;;;;10.28;100.00;91843.56;5108802;28;20184;-75
2022/11/18 08:16:15;;;;;;;36.90;23.47;;;;;;;10.41;100.00;91830.47;5108203;28;20220;-75
2022/11/18 08:18:41;;;;;;;29.90;22.57;;;;;;;10.28;100.00;91818.25;5110779;28;20209;-75
2022/11/18 08:21:06;;;;;;;33.53;21.57;;;;;;;10.35;100.00;91812.63;5109144;28;20236;-75
2022/11/18 08:23:32;;;;;;;24.67;20.53;;;;;;;9.88;100.00;91785.22;5113060;28;20196;-75
2022/11/18 08:26:06;;;;;;;23.27;16.93;;;;;;;9.97;100.00;91803.53;5111100;28;20224;-76
2022/11/18 08:28:32;;;;;;;25.00;20.10;;;;;;;10.40;100.00;91804.66;5110126;28;20188;-75
2022/11/18 08:30:57;;;;;;;28.10;19.63;;;;;;;10.80;100.00;91801.84;5095235;28;20297;-75
2022/11/18 08:33:23;;;;;;;21.37;19.03;;;;;;;10.84;100.00;91789.75;5091593;28;20197;-76
2022/11/18 08:35:48;;;;;;;19.90;17.87;;;;;;;10.79;100.00;91782.06;5090134;28;20232;-75
2022/11/18 08:38:13;;;;;;;19.80;15.00;;;;;;;11.13;100.00;91776.97;5090398;28;20185;-75
2022/11/18 08:40:44;;;;;;;18.23;16.33;;;;;;;11.55;100.00;91799.09;5091049;28;20224;-74
2022/11/18 08:43:10;;;;;;;18.50;16.70;;;;;;;11.58;100.00;91793.25;5090434;28;20236;-75
2022/11/18 08:45:37;;;;;;;18.43;16.07;;;;;;;11.38;100.00;91738.94;5103018;28;20261;-75
2022/11/18 08:48:03;;;;;;;19.50;17.10;;;;;;;11.79;100.00;91785.66;5111996;28;20252;-75
2022/11/18 08:50:28;;;;;;;22.40;19.77;;;;;;;11.84;100.00;91773.22;5104039;28;20226;-75
2022/11/18 08:52:53;;;;;;;25.23;18.90;;;;;;;11.90;100.00;91764.16;5102402;28;20211;-75
2022/11/18 08:55:19;;;;;;;19.40;17.40;;;;;;;11.91;100.00;91759.66;5098857;28;20239;-73
2022/11/18 08:57:44;;;;;;;17.40;14.70;;;;;;;11.84;100.00;91720.13;5101259;28;20254;-73
2022/11/18 09:00:10;;;;;;;16.30;14.70;;;;;;;11.85;100.00;91743.38;5100300;28;20225;-69
2022/11/18 09:02:36;;;;;;;19.13;15.53;;;;;;;11.68;100.00;91735.50;5096906;28;20189;-69
2022/11/18 09:05:01;;;;;;;15.87;14.47;;;;;;;11.78;100.00;91734.44;5099394;28;20231;-70
2022/11/18 09:07:27;;;;;;;17.03;14.93;;;;;;;12.19;100.00;91722.44;5100491;28;20199;-69
2022/11/18 09:09:52;;;;;;;14.73;13.43;;;;;;;11.56;100.00;91737.91;5097217;28;20217;-69
2022/11/18 09:12:17;;;;;;;15.80;13.70;;;;;;;12.12;100.00;91721.38;5090113;28;20208;-69
2022/11/18 09:14:44;;;;;;;14.13;12.93;;;;;;;12.15;100.00;91718.13;5093267;28;20231;-67
2022/11/18 09:17:10;;;;;;;14.80;13.23;;;;;;;12.14;100.00;91727.06;5108096;28;20199;-67
2022/11/18 09:19:36;;;;;;;16.27;14.57;;;;;;;12.34;100.00;91714.09;5108451;28;20219;-68
2022/11/18 09:22:03;;;;;;;16.43;14.77;;;;;;;12.94;97.94;91719.97;5108815;28;20760;-67
2022/11/18 09:24:28;;;;;;;16.50;14.77;;;;;;;12.58;96.88;91696.03;5110119;28;20310;-67
2022/11/18 09:26:54;;;;;;;18.33;14.20;;;;;;;12.57;97.25;91715.47;5108456;28;20180;-72
2022/11/18 09:29:24;;;;;;;19.27;15.70;;;;;;;12.75;97.95;91687.34;5108860;28;20184;-72
2022/11/18 09:31:49;;;;;;;15.37;13.77;;;;;;;13.03;92.64;91717.34;5110391;28;20194;-72
2022/11/18 09:34:14;;;;;;;15.67;13.97;;;;;;;13.20;90.56;91717.25;5107517;28;20211;-72
2022/11/18 09:36:40;;;;;;;13.47;12.30;;;;;;;12.95;90.19;91703.16;5109741;28;20235;-72
2022/11/18 09:39:05;;;;;;;13.60;12.27;;;;;;;12.41;95.88;91718.88;5109160;28;20180;-72
2022/11/18 09:41:45;;;;;;;15.50;13.47;;;;;;;12.88;92.62;91710.75;5105001;28;20218;-72
2022/11/18 09:44:29;;;;;;;15.43;12.67;;;;;;;13.02;89.62;91704.53;5106218;28;20188;-75
2022/11/18 09:47:13;;;;;;;14.17;12.73;;;;;;;13.02;89.52;91684.38;5106673;28;20772;-75
2022/11/18 09:49:42;;;;;;;14.13;12.67;;;;;;;12.88;88.19;91670.69;5109550;28;20227;-75
2022/11/18 09:52:28;;;;;;;12.40;11.20;;;;;;;12.78;88.70;91669.19;5109190;28;20175;-75
2022/11/18 09:54:54;;;;;;;14.93;13.53;;;;;;;12.74;89.70;91663.03;5108251;28;20235;-75
2022/11/18 09:57:24;;;;;;;15.20;13.27;;;;;;;12.86;88.47;91664.97;5107136;28;20180;-76
2022/11/18 09:59:50;;;;;;;13.87;12.67;;;;;;;12.77;87.23;91625.75;5108150;28;20229;-74
2022/11/18 10:02:29;;;;;;;14.07;12.30;;;;;;;13.18;87.00;91653.94;5108156;28;20192;-76
2022/11/18 10:05:00;;;;;;;12.90;11.70;;;;;;;13.31;86.40;91668.63;5108599;28;20238;-70
2022/11/18 10:07:40;;;;;;;17.73;14.80;;;;;;;13.41;88.36;91675.38;5108443;28;20233;-70
2022/11/18 10:10:15;;;;;;;15.57;12.57;;;;;;;13.51;88.55;91680.25;5108574;28;20279;-70
2022/11/18 10:12:48;;;;;;;14.53;12.77;;;;;;;13.64;85.08;91664.28;5106690;28;20179;-70
2022/11/18 10:15:38;;;;;;;14.20;12.83;;;;;;;13.67;85.85;91687.22;5106685;28;20223;-70
2022/11/18 10:18:16;;;;;;;22.17;14.27;;;;;;;13.48;85.30;91679.03;5108107;28;20176;-70
2022/11/18 10:21:06;;;;;;;21.27;15.27;;;;;;;13.62;85.55;91661.19;5094961;28;20224;-70
2022/11/18 10:23:38;;;;;;;23.63;15.57;;;;;;;13.69;85.05;91658.84;5087383;28;20184;-69
2022/11/18 10:26:04;;;;;;;17.43;13.03;;;;;;;13.61;83.21;91641.31;5087490;28;20232;-68
2022/11/18 10:28:30;;;;;;;16.20;14.20;;;;;;;13.59;83.12;91647.94;5088144;28;20224;-67
2022/11/18 10:31:06;;;;;;;17.23;14.57;;;;;;;13.37;85.74;91629.91;5093379;28;20243;-66
2022/11/18 10:33:32;;;;;;;15.93;14.30;;;;;;;13.35;85.63;91645.97;5098406;28;20185;-71
2022/11/18 10:36:23;;;;;;;16.20;13.80;;;;;;;13.36;88.37;91642.25;5096011;28;20279;-66
2022/11/18 10:39:04;;;;;;;17.90;13.40;;;;;;;13.66;83.82;91625.38;5096242;28;20245;-65
2022/11/18 10:41:38;;;;;;;16.37;13.77;;;;;;;13.56;84.46;91635.47;5088202;28;20220;-65
2022/11/18 10:44:03;;;;;;;16.73;14.93;;;;;;;13.40;85.59;91632.66;5084435;28;20177;-68
2022/11/18 10:46:38;;;;;;;16.80;12.87;;;;;;;13.73;82.93;91615.13;5105843;28;20288;-66
2022/11/18 10:49:09;;;;;;;19.00;14.40;;;;;;;14.16;82.66;91622.63;5103638;28;20187;-65
2022/11/18 10:51:41;;;;;;;16.07;13.63;;;;;;;14.66;79.88;91620.59;5088258;28;20223;-65
2022/11/18 10:54:21;;;;;;;20.80;13.93;;;;;;;14.41;79.79;91613.75;5087195;28;20858;-64
2022/11/18 10:56:49;;;;;;;14.70;13.13;;;;;;;14.39;80.45;91610.69;5088589;28;20211;-67
2022/11/18 10:59:28;;;;;;;12.97;11.77;;;;;;;14.61;77.68;91599.00;5087175;28;20177;-69
2022/11/18 11:02:17;;;;;;;13.27;11.97;;;;;;;14.46;80.03;91601.16;5086626;28;20199;-67
2022/11/18 11:04:47;;;;;;;15.10;13.57;;;;;;;14.31;78.98;91583.44;5081273;28;20240;-67
2022/11/18 11:07:22;;;;;;;13.93;12.53;;;;;;;14.92;76.70;91594.75;5085283;28;20807;-67
2022/11/18 11:10:18;;;;;;;14.53;13.13;;;;;;;15.20;74.07;91595.63;5083628;28;20240;-67
2022/11/18 11:13:14;;;;;;;17.60;14.30;;;;;;;14.71;76.17;91622.22;5082519;28;20219;-67
2022/11/18 11:15:46;;;;;;;13.77;12.43;;;;;;;15.16;74.75;91596.63;5086299;28;20228;-67
2022/11/18 11:21:14;;;;;;;14.83;13.23;;;;;;;15.08;75.32;91592.97;5093185;28;20236;-68
2022/11/18 11:23:41;;;;;;;16.13;13.33;;;;;;;15.60;74.04;91606.19;5097924;28;20222;-67
2022/11/18 11:26:25;;;;;;;21.60;15.80;;;;;;;15.14;77.05;91594.31;5103902;28;20227;-67
2022/11/18 11:29:30;;;;;;;21.13;16.73;;;;;;;15.36;76.14;91606.22;5107558;28;20195;-67
2022/11/18 11:32:15;;;;;;;23.77;16.97;;;;;;;15.91;74.08;91590.53;5085929;28;20201;-67
2022/11/18 11:34:56;;;;;;;22.80;16.63;;;;;;;15.51;76.02;91574.00;5088190;28;20247;-68
2022/11/18 11:37:48;;;;;;;25.13;16.73;;;;;;;15.74;74.73;91581.06;5107339;28;20207;-67
2022/11/18 11:40:53;;;;;;;20.77;16.60;;;;;;;15.56;73.33;91571.13;5110436;28;20208;-67
2022/11/18 11:43:31;;;;;;;26.20;16.77;;;;;;;15.44;73.87;91585.06;5111009;28;20244;-66